Regents Park, United Kingdom
Current Conditions -  °F | °C
As of 6:20 PM on Monday 22 Dec 2014 (Local Time) from EGLC Reporting Station
Scattered Clouds Scattered Clouds  
Wind Chill: 55°   Ceiling: Unl
Heat Index: 55°   Visibility: 6mi
Dew Point: 46°   Wind: 16mph
Humidity: 72%   Direction: 230°SW
Pressure: 30.06"   Gusts: NA
Location:  51.54°N, 0.14°W
Report Text: EGLC 221820Z 23014KT 9999 FEW022 SCT032 13/08 Q1018
Loading
Personal Weather Stations






























Interactive Weather Map New forecast layout! Learn more

10-Day Weather Forecast

Advertisements
Track Severe Weather on mobile